sensor_id;sensor_type;location;lat;lon;timestamp;P1;durP1;ratioP1;P2;durP2;ratioP2
20810;SDS011;10566;52.928;10.522;2022-09-09T00:02:22;29.57;;;18.40;;
20810;SDS011;10566;52.928;10.522;2022-09-09T00:13:24;39.30;;;22.17;;
20810;SDS011;10566;52.928;10.522;2022-09-09T00:15:36;39.13;;;21.43;;
20810;SDS011;10566;52.928;10.522;2022-09-09T00:18:16;36.73;;;21.97;;
20810;SDS011;10566;52.928;10.522;2022-09-09T00:20:53;40.77;;;23.67;;
20810;SDS011;10566;52.928;10.522;2022-09-09T00:25:51;34.13;;;20.03;;
20810;SDS011;10566;52.928;10.522;2022-09-09T00:28:22;29.53;;;18.30;;
20810;SDS011;10566;52.928;10.522;2022-09-09T00:30:48;28.77;;;18.27;;
20810;SDS011;10566;52.928;10.522;2022-09-09T00:33:15;27.90;;;18.10;;
20810;SDS011;10566;52.928;10.522;2022-09-09T00:35:54;28.40;;;17.80;;
20810;SDS011;10566;52.928;10.522;2022-09-09T00:38:25;25.43;;;16.80;;
20810;SDS011;10566;52.928;10.522;2022-09-09T00:43:25;29.03;;;18.10;;
20810;SDS011;10566;52.928;10.522;2022-09-09T00:48:17;21.03;;;15.00;;
20810;SDS011;10566;52.928;10.522;2022-09-09T00:58:31;30.47;;;18.03;;
20810;SDS011;10566;52.928;10.522;2022-09-09T01:01:03;25.90;;;17.23;;
20810;SDS011;10566;52.928;10.522;2022-09-09T01:03:37;30.00;;;17.87;;
20810;SDS011;10566;52.928;10.522;2022-09-09T01:11:14;32.50;;;18.50;;
20810;SDS011;10566;52.928;10.522;2022-09-09T01:13:41;25.20;;;16.63;;
20810;SDS011;10566;52.928;10.522;2022-09-09T01:16:08;23.80;;;16.23;;
20810;SDS011;10566;52.928;10.522;2022-09-09T01:18:40;28.33;;;16.37;;
20810;SDS011;10566;52.928;10.522;2022-09-09T01:28:52;21.43;;;14.20;;
20810;SDS011;10566;52.928;10.522;2022-09-09T01:31:26;22.70;;;15.27;;
20810;SDS011;10566;52.928;10.522;2022-09-09T01:33:53;23.67;;;15.33;;
20810;SDS011;10566;52.928;10.522;2022-09-09T01:38:51;18.87;;;14.20;;
20810;SDS011;10566;52.928;10.522;2022-09-09T01:41:17;21.13;;;14.80;;
20810;SDS011;10566;52.928;10.522;2022-09-09T01:43:44;20.77;;;13.37;;
20810;SDS011;10566;52.928;10.522;2022-09-09T01:46:10;27.67;;;14.80;;
20810;SDS011;10566;52.928;10.522;2022-09-09T01:48:36;19.57;;;13.03;;
20810;SDS011;10566;52.928;10.522;2022-09-09T01:51:03;21.43;;;13.60;;
20810;SDS011;10566;52.928;10.522;2022-09-09T01:53:29;23.17;;;14.00;;
20810;SDS011;10566;52.928;10.522;2022-09-09T01:56:16;17.43;;;12.70;;
20810;SDS011;10566;52.928;10.522;2022-09-09T02:03:56;18.80;;;12.60;;
20810;SDS011;10566;52.928;10.522;2022-09-09T02:06:25;18.00;;;11.97;;
20810;SDS011;10566;52.928;10.522;2022-09-09T02:08:53;19.30;;;12.67;;
20810;SDS011;10566;52.928;10.522;2022-09-09T02:11:21;15.67;;;12.13;;
20810;SDS011;10566;52.928;10.522;2022-09-09T02:13:49;16.50;;;11.53;;
20810;SDS011;10566;52.928;10.522;2022-09-09T02:16:28;14.87;;;11.27;;
20810;SDS011;10566;52.928;10.522;2022-09-09T02:21:42;17.37;;;11.30;;
20810;SDS011;10566;52.928;10.522;2022-09-09T02:24:08;17.83;;;12.13;;
20810;SDS011;10566;52.928;10.522;2022-09-09T02:26:36;18.30;;;12.20;;
20810;SDS011;10566;52.928;10.522;2022-09-09T02:29:03;19.87;;;12.57;;
20810;SDS011;10566;52.928;10.522;2022-09-09T02:31:30;17.57;;;11.73;;
20810;SDS011;10566;52.928;10.522;2022-09-09T02:34:00;18.33;;;11.07;;
20810;SDS011;10566;52.928;10.522;2022-09-09T02:36:29;18.63;;;12.03;;
20810;SDS011;10566;52.928;10.522;2022-09-09T02:38:58;16.77;;;11.23;;
20810;SDS011;10566;52.928;10.522;2022-09-09T02:41:43;14.60;;;10.47;;
20810;SDS011;10566;52.928;10.522;2022-09-09T02:44:13;19.37;;;11.17;;
20810;SDS011;10566;52.928;10.522;2022-09-09T02:52:14;13.93;;;9.20;;
20810;SDS011;10566;52.928;10.522;2022-09-09T02:54:41;12.17;;;8.03;;
20810;SDS011;10566;52.928;10.522;2022-09-09T02:57:12;13.27;;;8.23;;
20810;SDS011;10566;52.928;10.522;2022-09-09T02:59:41;11.33;;;7.47;;
20810;SDS011;10566;52.928;10.522;2022-09-09T03:02:08;11.20;;;8.33;;
20810;SDS011;10566;52.928;10.522;2022-09-09T03:04:36;14.23;;;7.10;;
20810;SDS011;10566;52.928;10.522;2022-09-09T03:07:02;9.63;;;7.40;;
20810;SDS011;10566;52.928;10.522;2022-09-09T03:09:29;12.87;;;8.27;;
20810;SDS011;10566;52.928;10.522;2022-09-09T03:11:55;11.20;;;7.40;;
20810;SDS011;10566;52.928;10.522;2022-09-09T03:14:22;11.07;;;6.93;;
20810;SDS011;10566;52.928;10.522;2022-09-09T03:16:50;12.40;;;6.33;;
20810;SDS011;10566;52.928;10.522;2022-09-09T03:19:16;9.80;;;6.57;;
20810;SDS011;10566;52.928;10.522;2022-09-09T03:21:43;10.63;;;7.00;;
20810;SDS011;10566;52.928;10.522;2022-09-09T03:24:10;12.83;;;7.10;;
20810;SDS011;10566;52.928;10.522;2022-09-09T03:26:37;13.00;;;7.23;;
20810;SDS011;10566;52.928;10.522;2022-09-09T03:29:06;9.07;;;6.40;;
20810;SDS011;10566;52.928;10.522;2022-09-09T03:31:33;11.70;;;6.97;;
20810;SDS011;10566;52.928;10.522;2022-09-09T03:34:00;9.13;;;6.20;;
20810;SDS011;10566;52.928;10.522;2022-09-09T03:36:26;9.90;;;6.97;;
20810;SDS011;10566;52.928;10.522;2022-09-09T03:38:53;10.33;;;6.70;;
20810;SDS011;10566;52.928;10.522;2022-09-09T03:41:20;11.73;;;6.47;;
20810;SDS011;10566;52.928;10.522;2022-09-09T03:43:47;11.33;;;6.33;;
20810;SDS011;10566;52.928;10.522;2022-09-09T03:46:12;10.53;;;6.73;;
20810;SDS011;10566;52.928;10.522;2022-09-09T03:48:38;10.27;;;7.10;;
20810;SDS011;10566;52.928;10.522;2022-09-09T03:51:04;9.90;;;6.27;;
20810;SDS011;10566;52.928;10.522;2022-09-09T03:53:30;14.13;;;6.60;;
20810;SDS011;10566;52.928;10.522;2022-09-09T03:55:57;13.17;;;6.50;;
20810;SDS011;10566;52.928;10.522;2022-09-09T03:58:24;9.83;;;6.27;;
20810;SDS011;10566;52.928;10.522;2022-09-09T04:01:07;10.20;;;5.63;;
20810;SDS011;10566;52.928;10.522;2022-09-09T04:03:38;7.90;;;5.50;;
20810;SDS011;10566;52.928;10.522;2022-09-09T04:06:04;10.80;;;6.00;;
20810;SDS011;10566;52.928;10.522;2022-09-09T04:08:32;11.07;;;6.10;;
20810;SDS011;10566;52.928;10.522;2022-09-09T04:10:58;10.70;;;6.40;;
20810;SDS011;10566;52.928;10.522;2022-09-09T04:13:25;10.10;;;6.50;;
20810;SDS011;10566;52.928;10.522;2022-09-09T04:15:52;8.73;;;5.73;;
20810;SDS011;10566;52.928;10.522;2022-09-09T04:18:18;11.87;;;6.80;;
20810;SDS011;10566;52.928;10.522;2022-09-09T04:20:48;11.70;;;6.60;;
20810;SDS011;10566;52.928;10.522;2022-09-09T04:23:15;12.17;;;6.63;;
20810;SDS011;10566;52.928;10.522;2022-09-09T04:25:44;10.70;;;6.43;;
20810;SDS011;10566;52.928;10.522;2022-09-09T04:28:11;11.17;;;5.60;;
20810;SDS011;10566;52.928;10.522;2022-09-09T04:30:37;9.17;;;5.80;;
20810;SDS011;10566;52.928;10.522;2022-09-09T04:33:05;9.03;;;4.97;;
20810;SDS011;10566;52.928;10.522;2022-09-09T04:35:31;8.17;;;5.17;;
20810;SDS011;10566;52.928;10.522;2022-09-09T04:37:58;9.73;;;5.17;;
20810;SDS011;10566;52.928;10.522;2022-09-09T04:40:24;8.63;;;4.47;;
20810;SDS011;10566;52.928;10.522;2022-09-09T04:42:50;9.43;;;4.60;;
20810;SDS011;10566;52.928;10.522;2022-09-09T04:45:16;11.93;;;5.67;;
20810;SDS011;10566;52.928;10.522;2022-09-09T04:47:43;10.57;;;5.73;;
20810;SDS011;10566;52.928;10.522;2022-09-09T04:50:09;7.73;;;5.43;;
20810;SDS011;10566;52.928;10.522;2022-09-09T04:52:37;13.10;;;6.10;;
20810;SDS011;10566;52.928;10.522;2022-09-09T04:55:03;13.43;;;6.07;;
20810;SDS011;10566;52.928;10.522;2022-09-09T04:57:29;11.30;;;6.30;;
20810;SDS011;10566;52.928;10.522;2022-09-09T04:59:57;13.80;;;6.00;;
20810;SDS011;10566;52.928;10.522;2022-09-09T05:02:23;9.00;;;4.90;;
20810;SDS011;10566;52.928;10.522;2022-09-09T05:04:49;10.00;;;5.50;;
20810;SDS011;10566;52.928;10.522;2022-09-09T05:07:15;14.33;;;5.73;;
20810;SDS011;10566;52.928;10.522;2022-09-09T05:09:41;8.30;;;4.90;;
20810;SDS011;10566;52.928;10.522;2022-09-09T05:12:08;9.77;;;5.83;;
20810;SDS011;10566;52.928;10.522;2022-09-09T05:14:34;9.50;;;4.83;;
20810;SDS011;10566;52.928;10.522;2022-09-09T05:17:02;10.23;;;5.60;;
20810;SDS011;10566;52.928;10.522;2022-09-09T05:19:28;10.90;;;5.23;;
20810;SDS011;10566;52.928;10.522;2022-09-09T05:21:55;9.57;;;5.47;;
20810;SDS011;10566;52.928;10.522;2022-09-09T05:24:21;9.83;;;5.30;;
20810;SDS011;10566;52.928;10.522;2022-09-09T05:26:51;11.83;;;5.90;;
20810;SDS011;10566;52.928;10.522;2022-09-09T05:29:18;10.23;;;4.57;;
20810;SDS011;10566;52.928;10.522;2022-09-09T05:31:45;7.90;;;4.67;;
20810;SDS011;10566;52.928;10.522;2022-09-09T05:34:12;11.23;;;5.93;;
20810;SDS011;10566;52.928;10.522;2022-09-09T05:36:38;10.00;;;5.00;;
20810;SDS011;10566;52.928;10.522;2022-09-09T05:39:04;10.70;;;5.10;;
20810;SDS011;10566;52.928;10.522;2022-09-09T05:41:30;11.50;;;5.07;;
20810;SDS011;10566;52.928;10.522;2022-09-09T05:43:57;15.03;;;6.17;;
20810;SDS011;10566;52.928;10.522;2022-09-09T05:46:26;10.17;;;4.30;;
20810;SDS011;10566;52.928;10.522;2022-09-09T05:48:52;12.73;;;5.03;;
20810;SDS011;10566;52.928;10.522;2022-09-09T05:51:19;11.67;;;4.87;;
20810;SDS011;10566;52.928;10.522;2022-09-09T05:53:46;13.47;;;5.00;;
20810;SDS011;10566;52.928;10.522;2022-09-09T05:56:22;10.67;;;5.00;;
20810;SDS011;10566;52.928;10.522;2022-09-09T05:58:50;9.80;;;4.60;;
20810;SDS011;10566;52.928;10.522;2022-09-09T06:01:19;11.03;;;5.17;;
20810;SDS011;10566;52.928;10.522;2022-09-09T06:03:46;17.67;;;6.93;;
20810;SDS011;10566;52.928;10.522;2022-09-09T06:06:14;13.43;;;5.47;;
20810;SDS011;10566;52.928;10.522;2022-09-09T06:08:41;10.07;;;4.63;;
20810;SDS011;10566;52.928;10.522;2022-09-09T06:11:30;12.97;;;5.30;;
20810;SDS011;10566;52.928;10.522;2022-09-09T06:13:56;11.37;;;5.30;;
20810;SDS011;10566;52.928;10.522;2022-09-09T06:16:22;12.63;;;6.10;;
20810;SDS011;10566;52.928;10.522;2022-09-09T06:18:49;11.37;;;5.23;;
20810;SDS011;10566;52.928;10.522;2022-09-09T06:21:19;12.83;;;6.20;;
20810;SDS011;10566;52.928;10.522;2022-09-09T06:23:46;12.77;;;6.60;;
20810;SDS011;10566;52.928;10.522;2022-09-09T06:26:18;13.03;;;5.97;;
20810;SDS011;10566;52.928;10.522;2022-09-09T06:28:46;13.17;;;6.20;;
20810;SDS011;10566;52.928;10.522;2022-09-09T06:31:12;13.23;;;5.40;;
20810;SDS011;10566;52.928;10.522;2022-09-09T06:33:40;14.73;;;7.10;;
20810;SDS011;10566;52.928;10.522;2022-09-09T06:36:10;12.33;;;5.83;;
20810;SDS011;10566;52.928;10.522;2022-09-09T06:38:37;11.97;;;4.37;;
20810;SDS011;10566;52.928;10.522;2022-09-09T06:41:03;10.30;;;4.10;;
20810;SDS011;10566;52.928;10.522;2022-09-09T06:43:30;10.07;;;4.93;;
20810;SDS011;10566;52.928;10.522;2022-09-09T06:48:23;8.10;;;4.30;;
20810;SDS011;10566;52.928;10.522;2022-09-09T06:51:06;8.47;;;3.83;;
20810;SDS011;10566;52.928;10.522;2022-09-09T06:53:37;6.80;;;3.40;;
20810;SDS011;10566;52.928;10.522;2022-09-09T06:58:45;12.73;;;5.63;;
20810;SDS011;10566;52.928;10.522;2022-09-09T07:01:12;12.73;;;5.77;;
20810;SDS011;10566;52.928;10.522;2022-09-09T07:03:41;10.97;;;5.40;;
20810;SDS011;10566;52.928;10.522;2022-09-09T07:06:08;10.43;;;4.93;;
20810;SDS011;10566;52.928;10.522;2022-09-09T07:08:39;10.73;;;3.80;;
20810;SDS011;10566;52.928;10.522;2022-09-09T07:11:06;8.93;;;3.57;;
20810;SDS011;10566;52.928;10.522;2022-09-09T07:13:33;9.73;;;3.10;;
20810;SDS011;10566;52.928;10.522;2022-09-09T07:16:07;9.33;;;3.67;;
20810;SDS011;10566;52.928;10.522;2022-09-09T07:18:34;8.63;;;3.50;;
20810;SDS011;10566;52.928;10.522;2022-09-09T07:21:00;8.83;;;3.07;;
20810;SDS011;10566;52.928;10.522;2022-09-09T07:23:27;6.53;;;3.00;;
20810;SDS011;10566;52.928;10.522;2022-09-09T07:25:55;7.60;;;2.67;;
20810;SDS011;10566;52.928;10.522;2022-09-09T07:28:25;8.13;;;2.80;;
20810;SDS011;10566;52.928;10.522;2022-09-09T07:30:56;8.20;;;2.45;;
20810;SDS011;10566;52.928;10.522;2022-09-09T07:33:23;7.30;;;2.47;;
20810;SDS011;10566;52.928;10.522;2022-09-09T07:35:49;5.13;;;2.33;;
20810;SDS011;10566;52.928;10.522;2022-09-09T07:38:16;7.68;;;2.28;;
20810;SDS011;10566;52.928;10.522;2022-09-09T07:40:42;8.00;;;2.20;;
20810;SDS011;10566;52.928;10.522;2022-09-09T07:43:08;6.15;;;2.00;;
20810;SDS011;10566;52.928;10.522;2022-09-09T07:45:34;6.80;;;2.60;;
20810;SDS011;10566;52.928;10.522;2022-09-09T07:48:01;7.20;;;2.40;;
20810;SDS011;10566;52.928;10.522;2022-09-09T07:50:27;5.88;;;2.20;;
20810;SDS011;10566;52.928;10.522;2022-09-09T07:52:53;6.88;;;2.17;;
20810;SDS011;10566;52.928;10.522;2022-09-09T07:55:19;11.65;;;2.20;;
20810;SDS011;10566;52.928;10.522;2022-09-09T07:57:45;9.43;;;2.45;;
20810;SDS011;10566;52.928;10.522;2022-09-09T08:00:12;7.80;;;2.25;;
20810;SDS011;10566;52.928;10.522;2022-09-09T08:02:39;7.13;;;2.30;;
20810;SDS011;10566;52.928;10.522;2022-09-09T08:05:06;6.70;;;2.08;;
20810;SDS011;10566;52.928;10.522;2022-09-09T08:07:32;9.75;;;2.63;;
20810;SDS011;10566;52.928;10.522;2022-09-09T08:09:59;9.13;;;3.67;;
20810;SDS011;10566;52.928;10.522;2022-09-09T08:12:25;8.00;;;2.63;;
20810;SDS011;10566;52.928;10.522;2022-09-09T08:14:51;5.93;;;2.17;;
20810;SDS011;10566;52.928;10.522;2022-09-09T08:17:18;8.23;;;2.70;;
20810;SDS011;10566;52.928;10.522;2022-09-09T08:19:45;14.05;;;4.47;;
20810;SDS011;10566;52.928;10.522;2022-09-09T08:22:11;12.68;;;5.30;;
20810;SDS011;10566;52.928;10.522;2022-09-09T08:24:37;7.97;;;3.30;;
20810;SDS011;10566;52.928;10.522;2022-09-09T08:27:03;9.88;;;2.13;;
20810;SDS011;10566;52.928;10.522;2022-09-09T08:29:29;8.75;;;3.20;;
20810;SDS011;10566;52.928;10.522;2022-09-09T08:31:56;8.98;;;4.35;;
20810;SDS011;10566;52.928;10.522;2022-09-09T08:34:23;7.72;;;2.65;;
20810;SDS011;10566;52.928;10.522;2022-09-09T08:36:52;5.70;;;2.13;;
20810;SDS011;10566;52.928;10.522;2022-09-09T08:39:19;6.63;;;2.00;;
20810;SDS011;10566;52.928;10.522;2022-09-09T08:47:38;10.85;;;1.80;;
20810;SDS011;10566;52.928;10.522;2022-09-09T08:50:22;4.82;;;1.70;;
20810;SDS011;10566;52.928;10.522;2022-09-09T08:53:02;7.05;;;1.60;;
20810;SDS011;10566;52.928;10.522;2022-09-09T08:57:58;11.57;;;1.70;;
20810;SDS011;10566;52.928;10.522;2022-09-09T09:00:32;7.82;;;1.60;;
20810;SDS011;10566;52.928;10.522;2022-09-09T09:03:15;8.88;;;2.42;;
20810;SDS011;10566;52.928;10.522;2022-09-09T09:05:55;6.55;;;1.70;;
20810;SDS011;10566;52.928;10.522;2022-09-09T09:08:31;7.95;;;1.85;;
20810;SDS011;10566;52.928;10.522;2022-09-09T09:10:59;7.18;;;1.50;;
20810;SDS011;10566;52.928;10.522;2022-09-09T09:16:32;5.88;;;1.20;;
20810;SDS011;10566;52.928;10.522;2022-09-09T09:18:58;5.18;;;1.50;;
20810;SDS011;10566;52.928;10.522;2022-09-09T09:23:56;7.10;;;1.33;;
20810;SDS011;10566;52.928;10.522;2022-09-09T09:26:23;5.35;;;1.35;;
20810;SDS011;10566;52.928;10.522;2022-09-09T09:28:52;4.70;;;1.48;;
20810;SDS011;10566;52.928;10.522;2022-09-09T09:31:18;7.07;;;1.40;;
20810;SDS011;10566;52.928;10.522;2022-09-09T09:33:49;3.42;;;1.20;;
20810;SDS011;10566;52.928;10.522;2022-09-09T09:36:18;4.95;;;1.38;;
20810;SDS011;10566;52.928;10.522;2022-09-09T09:38:51;7.03;;;1.60;;
20810;SDS011;10566;52.928;10.522;2022-09-09T09:41:28;5.10;;;1.30;;
20810;SDS011;10566;52.928;10.522;2022-09-09T09:43:55;4.95;;;1.40;;
20810;SDS011;10566;52.928;10.522;2022-09-09T09:46:22;5.47;;;1.38;;
20810;SDS011;10566;52.928;10.522;2022-09-09T09:49:02;9.70;;;1.48;;
20810;SDS011;10566;52.928;10.522;2022-09-09T09:51:30;6.30;;;1.50;;
20810;SDS011;10566;52.928;10.522;2022-09-09T09:56:38;5.32;;;1.40;;
20810;SDS011;10566;52.928;10.522;2022-09-09T09:59:05;7.78;;;1.25;;
20810;SDS011;10566;52.928;10.522;2022-09-09T10:01:32;4.47;;;1.30;;
20810;SDS011;10566;52.928;10.522;2022-09-09T10:03:59;5.32;;;1.30;;
20810;SDS011;10566;52.928;10.522;2022-09-09T10:06:44;4.65;;;1.17;;
20810;SDS011;10566;52.928;10.522;2022-09-09T10:17:54;5.25;;;1.23;;
20810;SDS011;10566;52.928;10.522;2022-09-09T10:22:50;4.32;;;1.50;;
20810;SDS011;10566;52.928;10.522;2022-09-09T10:28:08;3.72;;;1.05;;
20810;SDS011;10566;52.928;10.522;2022-09-09T10:31:00;4.65;;;1.52;;
20810;SDS011;10566;52.928;10.522;2022-09-09T10:38:30;5.38;;;1.50;;
20810;SDS011;10566;52.928;10.522;2022-09-09T10:46:23;3.97;;;1.13;;
20810;SDS011;10566;52.928;10.522;2022-09-09T10:51:33;4.22;;;1.17;;
20810;SDS011;10566;52.928;10.522;2022-09-09T10:56:31;5.60;;;1.20;;
20810;SDS011;10566;52.928;10.522;2022-09-09T10:59:00;4.28;;;1.00;;
20810;SDS011;10566;52.928;10.522;2022-09-09T11:01:30;4.93;;;1.23;;
20810;SDS011;10566;52.928;10.522;2022-09-09T11:03:58;4.95;;;1.20;;
20810;SDS011;10566;52.928;10.522;2022-09-09T11:06:31;3.25;;;1.10;;
20810;SDS011;10566;52.928;10.522;2022-09-09T11:09:00;5.38;;;1.60;;
20810;SDS011;10566;52.928;10.522;2022-09-09T11:11:39;5.10;;;1.83;;
20810;SDS011;10566;52.928;10.522;2022-09-09T11:14:12;4.85;;;1.50;;
20810;SDS011;10566;52.928;10.522;2022-09-09T11:16:46;5.72;;;1.60;;
20810;SDS011;10566;52.928;10.522;2022-09-09T11:22:00;7.38;;;2.92;;
20810;SDS011;10566;52.928;10.522;2022-09-09T11:24:28;5.38;;;1.90;;
20810;SDS011;10566;52.928;10.522;2022-09-09T11:27:14;7.97;;;1.90;;
20810;SDS011;10566;52.928;10.522;2022-09-09T11:32:17;6.70;;;2.28;;
20810;SDS011;10566;52.928;10.522;2022-09-09T11:34:50;7.70;;;2.50;;
20810;SDS011;10566;52.928;10.522;2022-09-09T11:40:19;7.47;;;3.08;;
20810;SDS011;10566;52.928;10.522;2022-09-09T11:42:46;8.02;;;3.13;;
20810;SDS011;10566;52.928;10.522;2022-09-09T11:47:51;7.78;;;3.10;;
20810;SDS011;10566;52.928;10.522;2022-09-09T11:52:44;6.03;;;3.00;;
20810;SDS011;10566;52.928;10.522;2022-09-09T11:55:20;6.15;;;3.03;;
20810;SDS011;10566;52.928;10.522;2022-09-09T12:00:32;10.00;;;3.42;;
20810;SDS011;10566;52.928;10.522;2022-09-09T12:02:59;7.30;;;2.95;;
20810;SDS011;10566;52.928;10.522;2022-09-09T12:05:39;10.02;;;2.90;;
20810;SDS011;10566;52.928;10.522;2022-09-09T12:08:05;7.15;;;3.10;;
20810;SDS011;10566;52.928;10.522;2022-09-09T12:10:33;5.68;;;3.00;;
20810;SDS011;10566;52.928;10.522;2022-09-09T12:13:16;9.20;;;3.80;;
20810;SDS011;10566;52.928;10.522;2022-09-09T12:15:49;8.02;;;3.83;;
20810;SDS011;10566;52.928;10.522;2022-09-09T12:18:23;5.80;;;3.28;;
20810;SDS011;10566;52.928;10.522;2022-09-09T12:21:06;7.22;;;3.10;;
20810;SDS011;10566;52.928;10.522;2022-09-09T12:23:39;9.05;;;3.22;;
20810;SDS011;10566;52.928;10.522;2022-09-09T12:36:50;5.70;;;3.90;;
20810;SDS011;10566;52.928;10.522;2022-09-09T12:39:27;7.63;;;3.95;;
20810;SDS011;10566;52.928;10.522;2022-09-09T12:41:55;7.25;;;4.10;;
20810;SDS011;10566;52.928;10.522;2022-09-09T12:44:25;8.25;;;4.28;;
20810;SDS011;10566;52.928;10.522;2022-09-09T12:46:55;6.68;;;3.60;;
20810;SDS011;10566;52.928;10.522;2022-09-09T12:52:01;12.23;;;4.10;;
20810;SDS011;10566;52.928;10.522;2022-09-09T12:54:27;8.70;;;3.80;;
20810;SDS011;10566;52.928;10.522;2022-09-09T12:56:54;5.80;;;2.78;;
20810;SDS011;10566;52.928;10.522;2022-09-09T12:59:22;7.20;;;2.78;;
20810;SDS011;10566;52.928;10.522;2022-09-09T13:01:57;6.70;;;2.72;;
20810;SDS011;10566;52.928;10.522;2022-09-09T13:04:24;7.32;;;2.90;;
20810;SDS011;10566;52.928;10.522;2022-09-09T13:06:50;7.35;;;2.80;;
20810;SDS011;10566;52.928;10.522;2022-09-09T13:09:17;5.53;;;2.50;;
20810;SDS011;10566;52.928;10.522;2022-09-09T13:11:49;6.18;;;2.10;;
20810;SDS011;10566;52.928;10.522;2022-09-09T13:14:28;6.70;;;2.25;;
20810;SDS011;10566;52.928;10.522;2022-09-09T13:16:59;5.20;;;1.33;;
20810;SDS011;10566;52.928;10.522;2022-09-09T13:19:26;4.70;;;1.40;;
20810;SDS011;10566;52.928;10.522;2022-09-09T13:21:54;4.72;;;1.10;;
20810;SDS011;10566;52.928;10.522;2022-09-09T13:24:33;5.55;;;1.25;;
20810;SDS011;10566;52.928;10.522;2022-09-09T13:27:04;3.88;;;1.33;;
20810;SDS011;10566;52.928;10.522;2022-09-09T13:29:31;4.78;;;1.00;;
20810;SDS011;10566;52.928;10.522;2022-09-09T13:32:04;4.85;;;1.20;;
20810;SDS011;10566;52.928;10.522;2022-09-09T13:34:33;4.55;;;1.10;;
20810;SDS011;10566;52.928;10.522;2022-09-09T13:37:01;4.15;;;1.20;;
20810;SDS011;10566;52.928;10.522;2022-09-09T13:39:28;5.03;;;1.20;;
20810;SDS011;10566;52.928;10.522;2022-09-09T13:41:54;4.97;;;1.10;;
20810;SDS011;10566;52.928;10.522;2022-09-09T13:44:23;8.02;;;1.23;;
20810;SDS011;10566;52.928;10.522;2022-09-09T13:47:01;3.65;;;1.00;;
20810;SDS011;10566;52.928;10.522;2022-09-09T13:49:30;5.30;;;1.08;;
20810;SDS011;10566;52.928;10.522;2022-09-09T13:52:11;4.00;;;1.02;;
20810;SDS011;10566;52.928;10.522;2022-09-09T13:54:39;4.82;;;1.20;;
20810;SDS011;10566;52.928;10.522;2022-09-09T13:57:05;2.97;;;1.15;;
20810;SDS011;10566;52.928;10.522;2022-09-09T13:59:34;5.35;;;1.10;;
20810;SDS011;10566;52.928;10.522;2022-09-09T14:02:03;4.95;;;1.38;;
20810;SDS011;10566;52.928;10.522;2022-09-09T14:04:29;4.20;;;1.10;;
20810;SDS011;10566;52.928;10.522;2022-09-09T14:06:55;2.95;;;1.00;;
20810;SDS011;10566;52.928;10.522;2022-09-09T14:09:21;3.33;;;1.02;;
20810;SDS011;10566;52.928;10.522;2022-09-09T14:11:48;4.95;;;1.30;;
20810;SDS011;10566;52.928;10.522;2022-09-09T14:14:14;7.68;;;1.10;;
20810;SDS011;10566;52.928;10.522;2022-09-09T14:16:40;6.47;;;1.30;;
20810;SDS011;10566;52.928;10.522;2022-09-09T14:19:07;6.32;;;1.42;;
20810;SDS011;10566;52.928;10.522;2022-09-09T14:21:34;5.07;;;1.40;;
20810;SDS011;10566;52.928;10.522;2022-09-09T14:24:00;4.80;;;1.58;;
20810;SDS011;10566;52.928;10.522;2022-09-09T14:26:26;4.15;;;1.27;;
20810;SDS011;10566;52.928;10.522;2022-09-09T14:28:54;4.88;;;1.40;;
20810;SDS011;10566;52.928;10.522;2022-09-09T14:31:21;5.82;;;1.58;;
20810;SDS011;10566;52.928;10.522;2022-09-09T14:33:47;4.93;;;1.60;;
20810;SDS011;10566;52.928;10.522;2022-09-09T14:36:13;6.57;;;1.33;;
20810;SDS011;10566;52.928;10.522;2022-09-09T14:38:40;3.75;;;1.40;;
20810;SDS011;10566;52.928;10.522;2022-09-09T14:41:07;5.80;;;1.30;;
20810;SDS011;10566;52.928;10.522;2022-09-09T14:43:34;8.50;;;1.50;;
20810;SDS011;10566;52.928;10.522;2022-09-09T14:46:04;4.70;;;1.35;;
20810;SDS011;10566;52.928;10.522;2022-09-09T14:48:31;5.97;;;1.52;;
20810;SDS011;10566;52.928;10.522;2022-09-09T14:51:04;5.53;;;1.60;;
20810;SDS011;10566;52.928;10.522;2022-09-09T14:53:30;7.80;;;1.50;;
20810;SDS011;10566;52.928;10.522;2022-09-09T14:56:03;5.13;;;1.58;;
20810;SDS011;10566;52.928;10.522;2022-09-09T14:58:32;4.57;;;1.55;;
20810;SDS011;10566;52.928;10.522;2022-09-09T15:01:05;6.68;;;1.50;;
20810;SDS011;10566;52.928;10.522;2022-09-09T15:03:32;6.65;;;1.50;;
20810;SDS011;10566;52.928;10.522;2022-09-09T15:06:04;6.03;;;1.40;;
20810;SDS011;10566;52.928;10.522;2022-09-09T15:08:30;9.05;;;1.60;;
20810;SDS011;10566;52.928;10.522;2022-09-09T15:11:00;8.50;;;1.60;;
20810;SDS011;10566;52.928;10.522;2022-09-09T15:13:28;5.90;;;1.55;;
20810;SDS011;10566;52.928;10.522;2022-09-09T15:15:54;5.40;;;1.30;;
20810;SDS011;10566;52.928;10.522;2022-09-09T15:18:21;6.43;;;1.65;;
20810;SDS011;10566;52.928;10.522;2022-09-09T15:20:47;6.75;;;1.70;;
20810;SDS011;10566;52.928;10.522;2022-09-09T15:23:14;4.50;;;1.13;;
20810;SDS011;10566;52.928;10.522;2022-09-09T15:25:55;4.78;;;1.20;;
20810;SDS011;10566;52.928;10.522;2022-09-09T15:28:22;5.40;;;1.23;;
20810;SDS011;10566;52.928;10.522;2022-09-09T15:30:49;3.88;;;1.05;;
20810;SDS011;10566;52.928;10.522;2022-09-09T15:33:21;4.10;;;1.00;;
20810;SDS011;10566;52.928;10.522;2022-09-09T15:35:47;5.15;;;1.30;;
20810;SDS011;10566;52.928;10.522;2022-09-09T15:38:14;6.57;;;1.42;;
20810;SDS011;10566;52.928;10.522;2022-09-09T15:40:42;6.18;;;1.17;;
20810;SDS011;10566;52.928;10.522;2022-09-09T15:43:09;5.13;;;1.10;;
20810;SDS011;10566;52.928;10.522;2022-09-09T15:45:36;5.10;;;1.20;;
20810;SDS011;10566;52.928;10.522;2022-09-09T15:48:02;2.95;;;1.10;;
20810;SDS011;10566;52.928;10.522;2022-09-09T15:50:30;2.85;;;0.90;;
20810;SDS011;10566;52.928;10.522;2022-09-09T15:52:57;4.88;;;1.23;;
20810;SDS011;10566;52.928;10.522;2022-09-09T15:55:23;6.22;;;1.23;;
20810;SDS011;10566;52.928;10.522;2022-09-09T15:57:50;7.72;;;1.20;;
20810;SDS011;10566;52.928;10.522;2022-09-09T16:00:20;4.95;;;1.25;;
20810;SDS011;10566;52.928;10.522;2022-09-09T16:02:49;4.65;;;1.08;;
20810;SDS011;10566;52.928;10.522;2022-09-09T16:05:16;5.55;;;1.20;;
20810;SDS011;10566;52.928;10.522;2022-09-09T16:07:43;4.43;;;1.30;;
20810;SDS011;10566;52.928;10.522;2022-09-09T16:10:09;6.10;;;1.40;;
20810;SDS011;10566;52.928;10.522;2022-09-09T16:12:39;6.40;;;1.20;;
20810;SDS011;10566;52.928;10.522;2022-09-09T16:15:06;3.83;;;1.00;;
20810;SDS011;10566;52.928;10.522;2022-09-09T16:17:32;4.93;;;1.23;;
20810;SDS011;10566;52.928;10.522;2022-09-09T16:20:02;5.40;;;1.20;;
20810;SDS011;10566;52.928;10.522;2022-09-09T16:22:31;5.10;;;1.10;;
20810;SDS011;10566;52.928;10.522;2022-09-09T16:25:00;5.65;;;1.27;;
20810;SDS011;10566;52.928;10.522;2022-09-09T16:27:27;5.00;;;1.30;;
20810;SDS011;10566;52.928;10.522;2022-09-09T16:29:55;4.68;;;1.10;;
20810;SDS011;10566;52.928;10.522;2022-09-09T16:32:21;6.45;;;1.17;;
20810;SDS011;10566;52.928;10.522;2022-09-09T16:34:47;6.80;;;1.30;;
20810;SDS011;10566;52.928;10.522;2022-09-09T16:37:14;5.88;;;1.33;;
20810;SDS011;10566;52.928;10.522;2022-09-09T16:39:48;5.57;;;1.20;;
20810;SDS011;10566;52.928;10.522;2022-09-09T16:42:23;6.75;;;1.30;;
20810;SDS011;10566;52.928;10.522;2022-09-09T16:44:49;4.03;;;1.30;;
20810;SDS011;10566;52.928;10.522;2022-09-09T16:47:16;4.20;;;1.30;;
20810;SDS011;10566;52.928;10.522;2022-09-09T16:49:43;8.80;;;3.20;;
20810;SDS011;10566;52.928;10.522;2022-09-09T16:52:09;3.25;;;1.15;;